sensor_id;sensor_type;location;lat;lon;timestamp;P1;durP1;ratioP1;P2;durP2;ratioP2
20894;SDS011;10607;42.066;24.742;2023-02-28T00:00:17;25.73;;;6.80;;
20894;SDS011;10607;42.066;24.742;2023-02-28T00:02:43;24.42;;;6.18;;
20894;SDS011;10607;42.066;24.742;2023-02-28T00:05:09;19.25;;;5.45;;
20894;SDS011;10607;42.066;24.742;2023-02-28T00:07:34;24.58;;;6.03;;
20894;SDS011;10607;42.066;24.742;2023-02-28T00:10:00;36.50;;;5.55;;
20894;SDS011;10607;42.066;24.742;2023-02-28T00:12:25;32.63;;;5.13;;
20894;SDS011;10607;42.066;24.742;2023-02-28T00:14:51;33.60;;;7.18;;
20894;SDS011;10607;42.066;24.742;2023-02-28T00:17:16;32.20;;;5.10;;
20894;SDS011;10607;42.066;24.742;2023-02-28T00:19:43;35.97;;;4.38;;
20894;SDS011;10607;42.066;24.742;2023-02-28T00:22:08;28.13;;;4.72;;
20894;SDS011;10607;42.066;24.742;2023-02-28T00:24:33;31.65;;;5.70;;
20894;SDS011;10607;42.066;24.742;2023-02-28T00:26:58;30.83;;;5.43;;
20894;SDS011;10607;42.066;24.742;2023-02-28T00:29:24;26.40;;;4.95;;
20894;SDS011;10607;42.066;24.742;2023-02-28T00:31:49;33.00;;;5.18;;
20894;SDS011;10607;42.066;24.742;2023-02-28T00:34:14;31.73;;;5.93;;
20894;SDS011;10607;42.066;24.742;2023-02-28T00:36:39;25.52;;;5.63;;
20894;SDS011;10607;42.066;24.742;2023-02-28T00:39:08;27.90;;;5.27;;
20894;SDS011;10607;42.066;24.742;2023-02-28T00:41:33;27.97;;;5.43;;
20894;SDS011;10607;42.066;24.742;2023-02-28T00:43:59;28.37;;;5.67;;
20894;SDS011;10607;42.066;24.742;2023-02-28T00:46:24;32.08;;;5.55;;
20894;SDS011;10607;42.066;24.742;2023-02-28T00:48:49;27.40;;;6.00;;
20894;SDS011;10607;42.066;24.742;2023-02-28T00:51:15;26.03;;;4.30;;
20894;SDS011;10607;42.066;24.742;2023-02-28T00:53:40;30.43;;;5.07;;
20894;SDS011;10607;42.066;24.742;2023-02-28T00:56:05;22.10;;;4.77;;
20894;SDS011;10607;42.066;24.742;2023-02-28T00:58:31;27.67;;;5.23;;
20894;SDS011;10607;42.066;24.742;2023-02-28T01:01:15;26.00;;;5.13;;
20894;SDS011;10607;42.066;24.742;2023-02-28T01:03:40;29.47;;;5.67;;
20894;SDS011;10607;42.066;24.742;2023-02-28T01:06:06;33.23;;;8.37;;
20894;SDS011;10607;42.066;24.742;2023-02-28T01:08:31;30.43;;;5.10;;
20894;SDS011;10607;42.066;24.742;2023-02-28T01:10:56;32.33;;;4.90;;
20894;SDS011;10607;42.066;24.742;2023-02-28T01:13:22;32.97;;;5.30;;
20894;SDS011;10607;42.066;24.742;2023-02-28T01:15:52;24.80;;;5.13;;
20894;SDS011;10607;42.066;24.742;2023-02-28T01:18:19;29.07;;;4.90;;
20894;SDS011;10607;42.066;24.742;2023-02-28T01:20:44;35.60;;;7.57;;
20894;SDS011;10607;42.066;24.742;2023-02-28T01:23:11;27.63;;;5.60;;
20894;SDS011;10607;42.066;24.742;2023-02-28T01:25:37;27.80;;;5.80;;
20894;SDS011;10607;42.066;24.742;2023-02-28T01:28:02;28.30;;;4.80;;
20894;SDS011;10607;42.066;24.742;2023-02-28T01:30:27;25.90;;;6.30;;
20894;SDS011;10607;42.066;24.742;2023-02-28T01:32:53;29.80;;;8.10;;
20894;SDS011;10607;42.066;24.742;2023-02-28T01:35:18;27.60;;;7.37;;
20894;SDS011;10607;42.066;24.742;2023-02-28T01:37:44;27.57;;;7.83;;
20894;SDS011;10607;42.066;24.742;2023-02-28T01:40:09;24.93;;;9.23;;
20894;SDS011;10607;42.066;24.742;2023-02-28T01:42:35;35.93;;;8.93;;
20894;SDS011;10607;42.066;24.742;2023-02-28T01:47:27;31.47;;;8.43;;
20894;SDS011;10607;42.066;24.742;2023-02-28T01:49:53;32.67;;;9.47;;
20894;SDS011;10607;42.066;24.742;2023-02-28T01:52:19;39.70;;;10.83;;
20894;SDS011;10607;42.066;24.742;2023-02-28T01:54:45;23.87;;;9.53;;
20894;SDS011;10607;42.066;24.742;2023-02-28T01:57:16;35.53;;;9.80;;
20894;SDS011;10607;42.066;24.742;2023-02-28T01:59:50;29.63;;;10.80;;
20894;SDS011;10607;42.066;24.742;2023-02-28T02:02:17;36.87;;;11.40;;
20894;SDS011;10607;42.066;24.742;2023-02-28T02:07:29;41.27;;;11.17;;
20894;SDS011;10607;42.066;24.742;2023-02-28T02:10:10;26.47;;;8.37;;
20894;SDS011;10607;42.066;24.742;2023-02-28T02:15:15;29.17;;;10.00;;
20894;SDS011;10607;42.066;24.742;2023-02-28T02:17:45;32.00;;;8.60;;
20894;SDS011;10607;42.066;24.742;2023-02-28T02:20:22;29.37;;;9.43;;
20894;SDS011;10607;42.066;24.742;2023-02-28T02:25:39;31.67;;;9.30;;
20894;SDS011;10607;42.066;24.742;2023-02-28T02:28:16;34.63;;;8.17;;
20894;SDS011;10607;42.066;24.742;2023-02-28T02:41:14;20.43;;;7.80;;
20894;SDS011;10607;42.066;24.742;2023-02-28T02:46:29;24.83;;;7.67;;
20894;SDS011;10607;42.066;24.742;2023-02-28T02:48:52;24.90;;;7.90;;
20894;SDS011;10607;42.066;24.742;2023-02-28T02:51:20;29.00;;;7.77;;
20894;SDS011;10607;42.066;24.742;2023-02-28T02:56:28;24.90;;;8.70;;
20894;SDS011;10607;42.066;24.742;2023-02-28T02:58:56;24.00;;;8.40;;
20894;SDS011;10607;42.066;24.742;2023-02-28T03:01:24;21.73;;;9.50;;
20894;SDS011;10607;42.066;24.742;2023-02-28T03:04:01;24.27;;;9.23;;
20894;SDS011;10607;42.066;24.742;2023-02-28T03:06:27;34.03;;;10.80;;
20894;SDS011;10607;42.066;24.742;2023-02-28T03:08:53;25.53;;;10.00;;
20894;SDS011;10607;42.066;24.742;2023-02-28T03:11:18;24.47;;;9.57;;
20894;SDS011;10607;42.066;24.742;2023-02-28T03:16:24;27.10;;;9.70;;
20894;SDS011;10607;42.066;24.742;2023-02-28T03:19:06;28.93;;;10.20;;
20894;SDS011;10607;42.066;24.742;2023-02-28T03:27:07;30.70;;;14.73;;
20894;SDS011;10607;42.066;24.742;2023-02-28T03:29:35;19.77;;;10.57;;
20894;SDS011;10607;42.066;24.742;2023-02-28T03:32:04;20.67;;;11.97;;
20894;SDS011;10607;42.066;24.742;2023-02-28T03:34:36;23.27;;;10.83;;
20894;SDS011;10607;42.066;24.742;2023-02-28T03:37:11;28.63;;;11.63;;
20894;SDS011;10607;42.066;24.742;2023-02-28T03:39:37;29.30;;;11.60;;
20894;SDS011;10607;42.066;24.742;2023-02-28T03:42:14;28.07;;;10.53;;
20894;SDS011;10607;42.066;24.742;2023-02-28T03:44:42;21.70;;;10.13;;
20894;SDS011;10607;42.066;24.742;2023-02-28T03:47:12;24.70;;;10.13;;
20894;SDS011;10607;42.066;24.742;2023-02-28T03:49:50;21.17;;;10.77;;
20894;SDS011;10607;42.066;24.742;2023-02-28T03:52:18;23.40;;;10.43;;
20894;SDS011;10607;42.066;24.742;2023-02-28T03:54:46;30.20;;;12.17;;
20894;SDS011;10607;42.066;24.742;2023-02-28T03:59:39;25.40;;;11.13;;
20894;SDS011;10607;42.066;24.742;2023-02-28T04:02:06;24.20;;;11.43;;
20894;SDS011;10607;42.066;24.742;2023-02-28T04:04:32;30.50;;;11.87;;
20894;SDS011;10607;42.066;24.742;2023-02-28T04:07:03;24.93;;;11.67;;
20894;SDS011;10607;42.066;24.742;2023-02-28T04:09:28;28.17;;;12.20;;
20894;SDS011;10607;42.066;24.742;2023-02-28T04:11:53;19.93;;;11.70;;
20894;SDS011;10607;42.066;24.742;2023-02-28T04:14:20;26.07;;;12.70;;
20894;SDS011;10607;42.066;24.742;2023-02-28T04:16:46;25.30;;;12.27;;
20894;SDS011;10607;42.066;24.742;2023-02-28T04:19:12;26.33;;;12.40;;
20894;SDS011;10607;42.066;24.742;2023-02-28T04:21:39;25.70;;;13.30;;
20894;SDS011;10607;42.066;24.742;2023-02-28T04:24:04;27.97;;;13.27;;
20894;SDS011;10607;42.066;24.742;2023-02-28T04:26:34;28.97;;;12.73;;
20894;SDS011;10607;42.066;24.742;2023-02-28T04:28:59;25.13;;;11.93;;
20894;SDS011;10607;42.066;24.742;2023-02-28T04:31:25;36.03;;;12.97;;
20894;SDS011;10607;42.066;24.742;2023-02-28T04:33:50;26.53;;;13.80;;
20894;SDS011;10607;42.066;24.742;2023-02-28T04:36:16;26.07;;;14.23;;
20894;SDS011;10607;42.066;24.742;2023-02-28T04:38:43;25.87;;;12.73;;
20894;SDS011;10607;42.066;24.742;2023-02-28T04:41:08;29.50;;;13.60;;
20894;SDS011;10607;42.066;24.742;2023-02-28T04:43:33;28.73;;;13.93;;
20894;SDS011;10607;42.066;24.742;2023-02-28T04:46:00;23.43;;;13.53;;
20894;SDS011;10607;42.066;24.742;2023-02-28T04:48:29;29.03;;;13.87;;
20894;SDS011;10607;42.066;24.742;2023-02-28T04:50:59;28.53;;;13.50;;
20894;SDS011;10607;42.066;24.742;2023-02-28T04:53:24;23.73;;;13.20;;
20894;SDS011;10607;42.066;24.742;2023-02-28T04:55:50;28.80;;;16.87;;
20894;SDS011;10607;42.066;24.742;2023-02-28T04:58:15;30.37;;;15.10;;
20894;SDS011;10607;42.066;24.742;2023-02-28T05:00:41;27.63;;;15.27;;
20894;SDS011;10607;42.066;24.742;2023-02-28T05:03:06;28.23;;;15.07;;
20894;SDS011;10607;42.066;24.742;2023-02-28T05:05:31;30.97;;;16.43;;
20894;SDS011;10607;42.066;24.742;2023-02-28T05:07:57;28.37;;;14.97;;
20894;SDS011;10607;42.066;24.742;2023-02-28T05:10:22;32.10;;;16.33;;
20894;SDS011;10607;42.066;24.742;2023-02-28T05:12:47;32.23;;;15.97;;
20894;SDS011;10607;42.066;24.742;2023-02-28T05:15:13;31.23;;;17.43;;
20894;SDS011;10607;42.066;24.742;2023-02-28T05:17:39;36.43;;;20.97;;
20894;SDS011;10607;42.066;24.742;2023-02-28T05:20:04;37.40;;;21.23;;
20894;SDS011;10607;42.066;24.742;2023-02-28T05:22:30;29.93;;;20.27;;
20894;SDS011;10607;42.066;24.742;2023-02-28T05:24:55;35.77;;;21.57;;
20894;SDS011;10607;42.066;24.742;2023-02-28T05:27:20;24.57;;;16.43;;
20894;SDS011;10607;42.066;24.742;2023-02-28T05:29:46;27.87;;;16.87;;
20894;SDS011;10607;42.066;24.742;2023-02-28T05:32:11;26.90;;;16.77;;
20894;SDS011;10607;42.066;24.742;2023-02-28T05:34:37;24.10;;;14.20;;
20894;SDS011;10607;42.066;24.742;2023-02-28T05:37:03;26.47;;;14.70;;
20894;SDS011;10607;42.066;24.742;2023-02-28T05:39:28;27.97;;;15.70;;
20894;SDS011;10607;42.066;24.742;2023-02-28T05:41:54;26.83;;;15.37;;
20894;SDS011;10607;42.066;24.742;2023-02-28T05:44:19;24.90;;;14.47;;
20894;SDS011;10607;42.066;24.742;2023-02-28T05:46:44;25.80;;;14.80;;
20894;SDS011;10607;42.066;24.742;2023-02-28T05:49:10;21.23;;;12.63;;
20894;SDS011;10607;42.066;24.742;2023-02-28T05:51:35;24.93;;;15.07;;
20894;SDS011;10607;42.066;24.742;2023-02-28T05:54:01;29.07;;;14.23;;
20894;SDS011;10607;42.066;24.742;2023-02-28T05:56:27;26.03;;;14.87;;
20894;SDS011;10607;42.066;24.742;2023-02-28T05:58:52;26.33;;;15.17;;
20894;SDS011;10607;42.066;24.742;2023-02-28T06:01:21;27.43;;;14.60;;
20894;SDS011;10607;42.066;24.742;2023-02-28T06:03:47;26.73;;;14.63;;
20894;SDS011;10607;42.066;24.742;2023-02-28T06:06:13;26.63;;;14.73;;
20894;SDS011;10607;42.066;24.742;2023-02-28T06:08:38;30.83;;;16.63;;
20894;SDS011;10607;42.066;24.742;2023-02-28T06:11:03;28.27;;;14.80;;
20894;SDS011;10607;42.066;24.742;2023-02-28T06:13:29;36.87;;;17.27;;
20894;SDS011;10607;42.066;24.742;2023-02-28T06:15:54;29.60;;;15.50;;
20894;SDS011;10607;42.066;24.742;2023-02-28T06:18:20;32.57;;;15.50;;
20894;SDS011;10607;42.066;24.742;2023-02-28T06:20:51;36.03;;;17.20;;
20894;SDS011;10607;42.066;24.742;2023-02-28T06:23:18;28.77;;;14.30;;
20894;SDS011;10607;42.066;24.742;2023-02-28T06:25:44;27.90;;;15.70;;
20894;SDS011;10607;42.066;24.742;2023-02-28T06:28:10;33.67;;;18.70;;
20894;SDS011;10607;42.066;24.742;2023-02-28T06:30:36;30.87;;;16.37;;
20894;SDS011;10607;42.066;24.742;2023-02-28T06:33:01;32.23;;;17.07;;
20894;SDS011;10607;42.066;24.742;2023-02-28T06:35:27;30.87;;;16.10;;
20894;SDS011;10607;42.066;24.742;2023-02-28T06:37:52;36.63;;;17.53;;
20894;SDS011;10607;42.066;24.742;2023-02-28T06:40:17;36.50;;;18.87;;
20894;SDS011;10607;42.066;24.742;2023-02-28T06:42:43;36.43;;;19.60;;
20894;SDS011;10607;42.066;24.742;2023-02-28T06:45:09;33.77;;;18.40;;
20894;SDS011;10607;42.066;24.742;2023-02-28T06:47:35;33.57;;;19.33;;
20894;SDS011;10607;42.066;24.742;2023-02-28T06:50:01;84.83;;;49.50;;
20894;SDS011;10607;42.066;24.742;2023-02-28T06:52:27;62.37;;;30.47;;
20894;SDS011;10607;42.066;24.742;2023-02-28T06:54:52;43.93;;;25.87;;
20894;SDS011;10607;42.066;24.742;2023-02-28T06:57:25;45.90;;;26.00;;
20894;SDS011;10607;42.066;24.742;2023-02-28T06:59:52;42.53;;;22.93;;
20894;SDS011;10607;42.066;24.742;2023-02-28T07:02:17;35.80;;;19.73;;
20894;SDS011;10607;42.066;24.742;2023-02-28T07:04:42;38.93;;;20.67;;
20894;SDS011;10607;42.066;24.742;2023-02-28T07:07:09;42.87;;;22.30;;
20894;SDS011;10607;42.066;24.742;2023-02-28T07:09:34;39.97;;;21.80;;
20894;SDS011;10607;42.066;24.742;2023-02-28T07:12:00;40.10;;;20.17;;
20894;SDS011;10607;42.066;24.742;2023-02-28T07:14:25;34.53;;;18.40;;
20894;SDS011;10607;42.066;24.742;2023-02-28T07:16:51;27.23;;;15.47;;
20894;SDS011;10607;42.066;24.742;2023-02-28T07:19:16;32.07;;;16.47;;
20894;SDS011;10607;42.066;24.742;2023-02-28T07:21:41;41.57;;;19.03;;
20894;SDS011;10607;42.066;24.742;2023-02-28T07:24:07;32.77;;;18.70;;
20894;SDS011;10607;42.066;24.742;2023-02-28T07:26:32;37.37;;;20.03;;
20894;SDS011;10607;42.066;24.742;2023-02-28T07:28:59;36.17;;;20.33;;
20894;SDS011;10607;42.066;24.742;2023-02-28T07:31:24;37.73;;;19.27;;
20894;SDS011;10607;42.066;24.742;2023-02-28T07:33:49;32.03;;;17.93;;
20894;SDS011;10607;42.066;24.742;2023-02-28T07:36:16;37.53;;;18.90;;
20894;SDS011;10607;42.066;24.742;2023-02-28T07:38:43;41.83;;;19.43;;
20894;SDS011;10607;42.066;24.742;2023-02-28T07:41:09;32.33;;;17.83;;
20894;SDS011;10607;42.066;24.742;2023-02-28T07:43:35;35.57;;;19.57;;
20894;SDS011;10607;42.066;24.742;2023-02-28T07:46:04;46.00;;;20.20;;
20894;SDS011;10607;42.066;24.742;2023-02-28T07:48:30;35.47;;;18.43;;
20894;SDS011;10607;42.066;24.742;2023-02-28T07:50:56;34.40;;;18.70;;
20894;SDS011;10607;42.066;24.742;2023-02-28T07:53:21;36.47;;;17.60;;
20894;SDS011;10607;42.066;24.742;2023-02-28T07:55:47;38.90;;;17.23;;
20894;SDS011;10607;42.066;24.742;2023-02-28T07:58:12;32.10;;;17.73;;
20894;SDS011;10607;42.066;24.742;2023-02-28T08:00:37;33.60;;;18.67;;
20894;SDS011;10607;42.066;24.742;2023-02-28T08:03:03;44.43;;;22.37;;
20894;SDS011;10607;42.066;24.742;2023-02-28T08:05:28;54.17;;;25.33;;
20894;SDS011;10607;42.066;24.742;2023-02-28T08:07:55;38.97;;;19.60;;
20894;SDS011;10607;42.066;24.742;2023-02-28T08:10:20;60.83;;;26.80;;
20894;SDS011;10607;42.066;24.742;2023-02-28T08:12:45;41.97;;;21.97;;
20894;SDS011;10607;42.066;24.742;2023-02-28T08:15:11;55.57;;;25.10;;
20894;SDS011;10607;42.066;24.742;2023-02-28T08:17:36;47.40;;;24.10;;
20894;SDS011;10607;42.066;24.742;2023-02-28T08:20:02;44.07;;;20.83;;
20894;SDS011;10607;42.066;24.742;2023-02-28T08:22:28;36.50;;;19.60;;
20894;SDS011;10607;42.066;24.742;2023-02-28T08:24:54;42.40;;;23.80;;
20894;SDS011;10607;42.066;24.742;2023-02-28T08:27:19;35.37;;;19.63;;
20894;SDS011;10607;42.066;24.742;2023-02-28T08:29:44;42.97;;;21.90;;
20894;SDS011;10607;42.066;24.742;2023-02-28T08:32:10;30.63;;;18.40;;
20894;SDS011;10607;42.066;24.742;2023-02-28T08:34:35;40.70;;;18.07;;
20894;SDS011;10607;42.066;24.742;2023-02-28T08:37:00;45.00;;;22.13;;
20894;SDS011;10607;42.066;24.742;2023-02-28T08:39:25;33.80;;;18.07;;
20894;SDS011;10607;42.066;24.742;2023-02-28T08:41:51;34.60;;;19.83;;
20894;SDS011;10607;42.066;24.742;2023-02-28T08:44:16;46.27;;;25.77;;
20894;SDS011;10607;42.066;24.742;2023-02-28T08:46:41;38.80;;;19.93;;
20894;SDS011;10607;42.066;24.742;2023-02-28T08:49:07;36.23;;;19.50;;
20894;SDS011;10607;42.066;24.742;2023-02-28T08:51:32;34.80;;;17.57;;
20894;SDS011;10607;42.066;24.742;2023-02-28T08:53:58;44.07;;;21.73;;
20894;SDS011;10607;42.066;24.742;2023-02-28T08:56:25;50.87;;;26.03;;
20894;SDS011;10607;42.066;24.742;2023-02-28T08:58:50;49.20;;;24.43;;
20894;SDS011;10607;42.066;24.742;2023-02-28T09:03:41;37.60;;;19.43;;
20894;SDS011;10607;42.066;24.742;2023-02-28T09:06:07;41.17;;;22.83;;
20894;SDS011;10607;42.066;24.742;2023-02-28T09:08:33;52.43;;;25.60;;
20894;SDS011;10607;42.066;24.742;2023-02-28T09:10:58;43.10;;;22.23;;
20894;SDS011;10607;42.066;24.742;2023-02-28T09:13:27;41.83;;;23.07;;
20894;SDS011;10607;42.066;24.742;2023-02-28T09:15:53;34.90;;;20.57;;
20894;SDS011;10607;42.066;24.742;2023-02-28T09:18:18;58.43;;;26.33;;
20894;SDS011;10607;42.066;24.742;2023-02-28T09:20:44;40.80;;;19.90;;
20894;SDS011;10607;42.066;24.742;2023-02-28T09:23:10;47.03;;;23.43;;
20894;SDS011;10607;42.066;24.742;2023-02-28T09:25:36;53.33;;;27.43;;
20894;SDS011;10607;42.066;24.742;2023-02-28T09:28:02;41.70;;;22.20;;
20894;SDS011;10607;42.066;24.742;2023-02-28T09:30:27;35.47;;;21.87;;
20894;SDS011;10607;42.066;24.742;2023-02-28T09:32:53;41.83;;;21.33;;
20894;SDS011;10607;42.066;24.742;2023-02-28T09:35:19;49.97;;;24.13;;
20894;SDS011;10607;42.066;24.742;2023-02-28T09:37:46;58.30;;;24.10;;
20894;SDS011;10607;42.066;24.742;2023-02-28T09:40:11;39.77;;;21.87;;
20894;SDS011;10607;42.066;24.742;2023-02-28T09:42:37;41.23;;;22.40;;
20894;SDS011;10607;42.066;24.742;2023-02-28T09:45:05;70.07;;;28.77;;
20894;SDS011;10607;42.066;24.742;2023-02-28T09:47:36;36.93;;;22.13;;
20894;SDS011;10607;42.066;24.742;2023-02-28T09:50:46;38.57;;;22.33;;
20894;SDS011;10607;42.066;24.742;2023-02-28T09:52:51;62.23;;;24.23;;
20894;SDS011;10607;42.066;24.742;2023-02-28T09:56:01;45.73;;;22.23;;
20894;SDS011;10607;42.066;24.742;2023-02-28T09:58:08;45.83;;;22.63;;
20894;SDS011;10607;42.066;24.742;2023-02-28T10:00:40;48.17;;;23.83;;
20894;SDS011;10607;42.066;24.742;2023-02-28T10:05:38;44.50;;;23.27;;
20894;SDS011;10607;42.066;24.742;2023-02-28T10:08:13;54.13;;;25.77;;
20894;SDS011;10607;42.066;24.742;2023-02-28T10:10:47;43.63;;;24.40;;
20894;SDS011;10607;42.066;24.742;2023-02-28T10:13:19;41.83;;;24.80;;
20894;SDS011;10607;42.066;24.742;2023-02-28T10:15:46;56.80;;;28.80;;
20894;SDS011;10607;42.066;24.742;2023-02-28T10:18:13;45.23;;;24.83;;
20894;SDS011;10607;42.066;24.742;2023-02-28T10:20:40;42.93;;;24.03;;
20894;SDS011;10607;42.066;24.742;2023-02-28T10:23:20;45.13;;;25.20;;
20894;SDS011;10607;42.066;24.742;2023-02-28T10:25:49;44.43;;;25.57;;
20894;SDS011;10607;42.066;24.742;2023-02-28T10:28:17;58.57;;;28.10;;
20894;SDS011;10607;42.066;24.742;2023-02-28T10:30:47;52.07;;;28.93;;
20894;SDS011;10607;42.066;24.742;2023-02-28T10:33:17;51.70;;;28.77;;
20894;SDS011;10607;42.066;24.742;2023-02-28T10:35:44;49.67;;;27.43;;
20894;SDS011;10607;42.066;24.742;2023-02-28T10:38:13;53.90;;;29.17;;
20894;SDS011;10607;42.066;24.742;2023-02-28T10:40:40;61.63;;;30.77;;
20894;SDS011;10607;42.066;24.742;2023-02-28T10:43:11;61.43;;;31.23;;
20894;SDS011;10607;42.066;24.742;2023-02-28T10:46:02;57.40;;;27.60;;
20894;SDS011;10607;42.066;24.742;2023-02-28T10:50:56;58.17;;;30.77;;
20894;SDS011;10607;42.066;24.742;2023-02-28T11:03:58;69.97;;;37.93;;
20894;SDS011;10607;42.066;24.742;2023-02-28T11:06:31;59.83;;;34.40;;
20894;SDS011;10607;42.066;24.742;2023-02-28T11:08:58;63.70;;;34.80;;
20894;SDS011;10607;42.066;24.742;2023-02-28T11:11:25;55.03;;;32.93;;
20894;SDS011;10607;42.066;24.742;2023-02-28T11:13:54;55.70;;;30.73;;
20894;SDS011;10607;42.066;24.742;2023-02-28T11:16:20;56.60;;;28.83;;
20894;SDS011;10607;42.066;24.742;2023-02-28T11:18:50;46.50;;;27.67;;
20894;SDS011;10607;42.066;24.742;2023-02-28T11:21:20;51.63;;;29.37;;
20894;SDS011;10607;42.066;24.742;2023-02-28T11:23:46;52.33;;;29.50;;
20894;SDS011;10607;42.066;24.742;2023-02-28T11:26:12;60.53;;;30.90;;
20894;SDS011;10607;42.066;24.742;2023-02-28T11:28:39;53.03;;;32.10;;
20894;SDS011;10607;42.066;24.742;2023-02-28T11:36:08;49.07;;;28.20;;
20894;SDS011;10607;42.066;24.742;2023-02-28T11:38:34;56.67;;;33.30;;
20894;SDS011;10607;42.066;24.742;2023-02-28T11:44:15;55.87;;;27.87;;
20894;SDS011;10607;42.066;24.742;2023-02-28T11:46:40;49.57;;;27.33;;
20894;SDS011;10607;42.066;24.742;2023-02-28T11:49:15;49.73;;;29.27;;
20894;SDS011;10607;42.066;24.742;2023-02-28T12:02:25;54.90;;;29.33;;
20894;SDS011;10607;42.066;24.742;2023-02-28T12:10:09;58.37;;;33.70;;
20894;SDS011;10607;42.066;24.742;2023-02-28T12:12:46;61.00;;;32.83;;
20894;SDS011;10607;42.066;24.742;2023-02-28T12:15:28;58.97;;;33.73;;
20894;SDS011;10607;42.066;24.742;2023-02-28T12:18:23;58.27;;;35.53;;
20894;SDS011;10607;42.066;24.742;2023-02-28T12:28:44;63.13;;;38.53;;
20894;SDS011;10607;42.066;24.742;2023-02-28T12:31:17;62.07;;;31.37;;
20894;SDS011;10607;42.066;24.742;2023-02-28T12:33:45;57.20;;;32.93;;
20894;SDS011;10607;42.066;24.742;2023-02-28T12:36:11;60.27;;;36.90;;
20894;SDS011;10607;42.066;24.742;2023-02-28T12:39:23;60.50;;;36.97;;
20894;SDS011;10607;42.066;24.742;2023-02-28T12:44:01;67.57;;;39.10;;
20894;SDS011;10607;42.066;24.742;2023-02-28T12:46:29;62.97;;;37.00;;
20894;SDS011;10607;42.066;24.742;2023-02-28T12:48:56;64.23;;;38.33;;
20894;SDS011;10607;42.066;24.742;2023-02-28T12:51:22;65.47;;;35.30;;
20894;SDS011;10607;42.066;24.742;2023-02-28T13:01:47;65.47;;;34.53;;
20894;SDS011;10607;42.066;24.742;2023-02-28T13:09:54;67.07;;;36.97;;
20894;SDS011;10607;42.066;24.742;2023-02-28T13:12:19;63.90;;;36.40;;
20894;SDS011;10607;42.066;24.742;2023-02-28T13:14:45;70.13;;;39.27;;
20894;SDS011;10607;42.066;24.742;2023-02-28T13:17:12;63.10;;;35.90;;
20894;SDS011;10607;42.066;24.742;2023-02-28T13:19:43;65.87;;;39.50;;
20894;SDS011;10607;42.066;24.742;2023-02-28T13:22:19;78.47;;;44.50;;
20894;SDS011;10607;42.066;24.742;2023-02-28T13:24:46;77.70;;;44.83;;
20894;SDS011;10607;42.066;24.742;2023-02-28T13:29:38;64.33;;;36.07;;
20894;SDS011;10607;42.066;24.742;2023-02-28T13:34:34;62.30;;;36.17;;
20894;SDS011;10607;42.066;24.742;2023-02-28T13:47:28;54.90;;;31.47;;
20894;SDS011;10607;42.066;24.742;2023-02-28T13:49:54;58.07;;;35.23;;
20894;SDS011;10607;42.066;24.742;2023-02-28T13:52:42;61.93;;;39.07;;
20894;SDS011;10607;42.066;24.742;2023-02-28T14:02:53;65.07;;;40.43;;
20894;SDS011;10607;42.066;24.742;2023-02-28T14:05:22;54.90;;;35.37;;
20894;SDS011;10607;42.066;24.742;2023-02-28T14:07:57;45.30;;;29.27;;
20894;SDS011;10607;42.066;24.742;2023-02-28T14:10:27;51.40;;;31.37;;
20894;SDS011;10607;42.066;24.742;2023-02-28T14:12:57;60.13;;;35.27;;
20894;SDS011;10607;42.066;24.742;2023-02-28T14:17:52;61.17;;;38.40;;
20894;SDS011;10607;42.066;24.742;2023-02-28T14:20:17;56.03;;;31.57;;
20894;SDS011;10607;42.066;24.742;2023-02-28T14:22:48;62.03;;;32.13;;
20894;SDS011;10607;42.066;24.742;2023-02-28T14:35:53;57.63;;;29.07;;
20894;SDS011;10607;42.066;24.742;2023-02-28T14:38:23;56.87;;;32.97;;
20894;SDS011;10607;42.066;24.742;2023-02-28T14:40:49;138.73;;;60.73;;
20894;SDS011;10607;42.066;24.742;2023-02-28T14:43:20;56.80;;;32.03;;
20894;SDS011;10607;42.066;24.742;2023-02-28T14:45:49;126.97;;;59.40;;
20894;SDS011;10607;42.066;24.742;2023-02-28T14:48:15;60.97;;;34.57;;
20894;SDS011;10607;42.066;24.742;2023-02-28T14:50:41;66.07;;;40.10;;
20894;SDS011;10607;42.066;24.742;2023-02-28T14:53:15;62.00;;;34.47;;
20894;SDS011;10607;42.066;24.742;2023-02-28T14:55:44;57.53;;;33.30;;
20894;SDS011;10607;42.066;24.742;2023-02-28T14:58:19;90.53;;;51.37;;
20894;SDS011;10607;42.066;24.742;2023-02-28T15:00:47;116.43;;;64.17;;
20894;SDS011;10607;42.066;24.742;2023-02-28T15:03:20;89.97;;;51.87;;
20894;SDS011;10607;42.066;24.742;2023-02-28T15:05:56;72.57;;;42.47;;
20894;SDS011;10607;42.066;24.742;2023-02-28T15:08:22;61.07;;;35.40;;
20894;SDS011;10607;42.066;24.742;2023-02-28T15:10:51;63.57;;;33.13;;
20894;SDS011;10607;42.066;24.742;2023-02-28T15:13:18;60.30;;;32.07;;
20894;SDS011;10607;42.066;24.742;2023-02-28T15:18:23;72.20;;;42.87;;
20894;SDS011;10607;42.066;24.742;2023-02-28T15:20:49;71.67;;;40.20;;
20894;SDS011;10607;42.066;24.742;2023-02-28T15:23:15;109.00;;;54.30;;
20894;SDS011;10607;42.066;24.742;2023-02-28T15:25:41;74.73;;;40.40;;
20894;SDS011;10607;42.066;24.742;2023-02-28T15:28:09;73.20;;;39.10;;
20894;SDS011;10607;42.066;24.742;2023-02-28T15:30:37;68.40;;;36.97;;
20894;SDS011;10607;42.066;24.742;2023-02-28T15:35:43;73.77;;;40.67;;
20894;SDS011;10607;42.066;24.742;2023-02-28T15:40:44;77.63;;;39.07;;
20894;SDS011;10607;42.066;24.742;2023-02-28T15:45:44;50.33;;;27.27;;
20894;SDS011;10607;42.066;24.742;2023-02-28T15:50:51;54.70;;;27.63;;
20894;SDS011;10607;42.066;24.742;2023-02-28T15:53:19;68.30;;;30.90;;
20894;SDS011;10607;42.066;24.742;2023-02-28T15:55:51;79.00;;;32.80;;
20894;SDS011;10607;42.066;24.742;2023-02-28T15:58:17;49.97;;;27.57;;
20894;SDS011;10607;42.066;24.742;2023-02-28T16:00:43;41.27;;;22.70;;
20894;SDS011;10607;42.066;24.742;2023-02-28T16:03:35;32.23;;;21.37;;
20894;SDS011;10607;42.066;24.742;2023-02-28T16:06:15;135.60;;;47.83;;
20894;SDS011;10607;42.066;24.742;2023-02-28T16:08:46;77.33;;;32.03;;
20894;SDS011;10607;42.066;24.742;2023-02-28T16:11:14;51.77;;;26.10;;
20894;SDS011;10607;42.066;24.742;2023-02-28T16:13:39;37.07;;;22.20;;
20894;SDS011;10607;42.066;24.742;2023-02-28T16:16:05;44.57;;;21.63;;
20894;SDS011;10607;42.066;24.742;2023-02-28T16:18:30;43.10;;;23.73;;
20894;SDS011;10607;42.066;24.742;2023-02-28T16:20:55;49.67;;;23.87;;
20894;SDS011;10607;42.066;24.742;2023-02-28T16:23:21;43.53;;;24.50;;
20894;SDS011;10607;42.066;24.742;2023-02-28T16:25:46;64.40;;;29.43;;
20894;SDS011;10607;42.066;24.742;2023-02-28T16:28:30;70.27;;;30.93;;
20894;SDS011;10607;42.066;24.742;2023-02-28T16:30:57;56.87;;;25.10;;
20894;SDS011;10607;42.066;24.742;2023-02-28T16:33:24;92.77;;;36.43;;
20894;SDS011;10607;42.066;24.742;2023-02-28T16:35:49;62.00;;;29.10;;
20894;SDS011;10607;42.066;24.742;2023-02-28T16:38:14;60.13;;;26.90;;
20894;SDS011;10607;42.066;24.742;2023-02-28T16:40:40;70.37;;;30.80;;
20894;SDS011;10607;42.066;24.742;2023-02-28T16:43:07;67.03;;;30.50;;
20894;SDS011;10607;42.066;24.742;2023-02-28T16:45:33;68.57;;;28.07;;